Sertosa Veintisiete — EAJZ — position and weather

sailwx.info

Track history (hours):
 
Tides and Currents Weather Stations Pressure Air Temp Water Temp Dewpoint Dewpoint Depression Visibility Wind Speed Wind Dir Waves Ship Positions

Sertosa Veintisiete

Last reported at 2017-Aug-16 16:40 UTC. Time now 2017-Aug-17 06:04 UTC.
Position N 36°10' W 005°23'.

Length 24 m; draft 4.2 m.

Type: Tug. MMSI: 224337000.

Date/timePositionNaut miles runAvg speedWind from/ knotsBaromVisibWave heightAir tempDewpointWater temp
2017-Aug-16 16:40N 36°10' W 005°23'0 0.0
2017-Aug-16 16:28N 36°10' W 005°23'8 0.2
2017-Aug-14 21:00N 36°02' W 005°21'5 9.2
2017-Aug-14 20:30N 35°58' W 005°20'4 7.5
2017-Aug-14 20:00N 35°54' W 005°19'0 0.0
2017-Aug-14 19:30N 35°54' W 005°19'1 2.2
2017-Aug-14 19:00N 35°54' W 005°18'1 2.1
2017-Aug-14 18:30N 35°54' W 005°19'0 0.0
2017-Aug-14 18:00N 35°54' W 005°19'0 0.0
2017-Aug-14 17:30N 35°54' W 005°19'0 0.0
2017-Aug-14 17:00N 35°54' W 005°19'0 0.0
2017-Aug-14 16:30N 35°54' W 005°19'0 0.0
2017-Aug-14 16:00N 35°54' W 005°19'0 0.0
2017-Aug-14 15:30N 35°54' W 005°19'0 0.0
2017-Aug-14 15:00N 35°54' W 005°19'0 0.0
2017-Aug-14 14:30N 35°54' W 005°19'0 0.0
2017-Aug-14 14:00N 35°54' W 005°19'0 0.0
2017-Aug-14 13:30N 35°54' W 005°19'0 0.0
2017-Aug-14 13:00N 35°54' W 005°19'0 0.0
2017-Aug-14 12:30N 35°54' W 005°19'0 0.0
2017-Aug-14 12:00N 35°54' W 005°19'0 0.0
2017-Aug-14 11:30N 35°54' W 005°19'1 2.2
2017-Aug-14 11:00N 35°54' W 005°20'0 1.0
2017-Aug-14 10:30N 35°54' W 005°19'4 8.6
2017-Aug-14 10:00N 35°58' W 005°22'12 0.9
2017-Aug-13 21:03N 36°10' W 005°23'  
2017-Aug-10 23:44N 36°10' W 005°23'0 0.0
2017-Aug-10 23:06N 36°10' W 005°23'0 0.0
2017-Aug-10 23:00N 36°10' W 005°23'0 0.0
2017-Aug-10 22:08N 36°10' W 005°23'0 0.0
2017-Aug-10 21:51N 36°10' W 005°23'3 1.1
2017-Aug-10 19:04N 36°08' W 005°25'1 0.5
2017-Aug-10 17:04N 36°09' W 005°26'2 0.3
2017-Aug-10 09:35N 36°10' W 005°24'0 5.5
2017-Aug-10 09:30N 36°09' W 005°24'0 0.8
2017-Aug-10 08:58N 36°09' W 005°24'2 2.1
2017-Aug-10 08:14N 36°10' W 005°23'0 1.5
2017-Aug-10 08:00N 36°10' W 005°23'0 0.0
2017-Aug-10 07:30N 36°10' W 005°23'0 0.4
2017-Aug-10 06:56N 36°10' W 005°23'0 0.6
2017-Aug-10 06:26N 36°10' W 005°23'0 0.0
2017-Aug-10 05:30N 36°10' W 005°23'0 0.0
2017-Aug-10 04:54N 36°10' W 005°23'0 0.0
2017-Aug-10 04:30N 36°10' W 005°23'0 0.0
2017-Aug-10 04:00N 36°10' W 005°23'0 0.0
2017-Aug-10 01:39N 36°10' W 005°23'0 0.0
2017-Aug-10 01:22N 36°10' W 005°23'0 0.0
2017-Aug-10 00:55N 36°10' W 005°23'0 0.0
2017-Aug-10 00:30N 36°10' W 005°23'0 0.0
2017-Aug-09 23:02N 36°10' W 005°23'0 0.0
2017-Aug-09 22:54N 36°10' W 005°23'0 0.0
2017-Aug-09 20:54N 36°10' W 005°23'0 0.0
2017-Aug-09 20:24N 36°10' W 005°23'0 0.0
2017-Aug-09 19:48N 36°10' W 005°23'0 0.0
2017-Aug-09 19:29N 36°10' W 005°23'0 0.0
2017-Aug-09 18:50N 36°10' W 005°23'0 0.3
2017-Aug-09 18:30N 36°10' W 005°23'1 1.4
2017-Aug-09 17:54N 36°11' W 005°24'0 0.2
2017-Aug-09 15:42N 36°11' W 005°24'1 2.4
2017-Aug-09 15:26N 36°10' W 005°23'2 0.7
2017-Aug-09 12:20N 36°08' W 005°24'1 2.5
2017-Aug-09 11:56N 36°09' W 005°24'1 0.3
2017-Aug-09 06:41N 36°10' W 005°24'0 1.5
2017-Aug-09 06:30N 36°10' W 005°24'1 1.6
2017-Aug-09 06:00N 36°10' W 005°23'0 0.0
2017-Aug-09 05:30N 36°10' W 005°23'0 0.0
2017-Aug-09 05:00N 36°10' W 005°23'0 0.0
2017-Aug-09 04:30N 36°10' W 005°23'0 0.0
2017-Aug-09 04:00N 36°10' W 005°23'0 0.0
2017-Aug-09 03:30N 36°10' W 005°23'1 0.4
2017-Aug-09 00:44N 36°11' W 005°24'0 0.3
2017-Aug-09 00:07N 36°11' W 005°24'0 0.0
2017-Aug-08 23:16N 36°11' W 005°24'0 0.0
2017-Aug-08 22:50N 36°11' W 005°24'0 0.0
2017-Aug-08 22:28N 36°11' W 005°24'0 0.0
2017-Aug-08 21:46N 36°11' W 005°24'0 0.0
2017-Aug-08 21:30N 36°11' W 005°24'0 0.0
2017-Aug-08 21:00N 36°11' W 005°24'0 0.0
2017-Aug-08 18:11N 36°11' W 005°24'0 1.1
2017-Aug-08 18:00N 36°11' W 005°24'1 2.3
2017-Aug-08 17:30N 36°10' W 005°23'0 0.0
2017-Aug-08 17:00N 36°10' W 005°23'0 0.0
2017-Aug-08 16:30N 36°10' W 005°23'0 0.0
2017-Aug-08 16:00N 36°10' W 005°23'0 0.0
2017-Aug-08 15:30N 36°10' W 005°23'0 0.0
2017-Aug-08 15:00N 36°10' W 005°23'0 0.6
2017-Aug-08 14:30N 36°10' W 005°23'0 0.6
2017-Aug-08 14:00N 36°10' W 005°23'1 2.4
2017-Aug-08 13:30N 36°11' W 005°24'0 0.0
2017-Aug-08 13:00N 36°11' W 005°24'1 2.3
2017-Aug-08 12:30N 36°10' W 005°23'0 0.0
2017-Aug-08 12:00N 36°10' W 005°23'0 0.0
2017-Aug-08 11:29N 36°10' W 005°23'0 0.0
2017-Aug-08 11:00N 36°10' W 005°23'0 0.0
2017-Aug-08 10:30N 36°10' W 005°23'0 0.0
2017-Aug-08 10:00N 36°10' W 005°23'0 0.0
2017-Aug-08 09:30N 36°10' W 005°23'0 0.0
2017-Aug-08 09:00N 36°10' W 005°23'1 1.1
2017-Aug-08 08:30N 36°10' W 005°23'1 1.3
2017-Aug-08 07:55N 36°11' W 005°24'1 1.7
2017-Aug-08 07:27N 36°10' W 005°25'1 0.9
2017-Aug-08 06:12N 36°10' W 005°23'1 3.7
2017-Aug-08 06:00N 36°10' W 005°23'0 0.0
2017-Aug-08 05:30N 36°10' W 005°23'0 0.0
2017-Aug-08 05:00N 36°10' W 005°23'0 0.0
2017-Aug-08 04:30N 36°10' W 005°23'0 0.0
2017-Aug-08 04:00N 36°10' W 005°23'0 0.0
2017-Aug-08 03:30N 36°10' W 005°23'0 0.0
2017-Aug-08 03:00N 36°10' W 005°23'0 0.0
2017-Aug-08 02:30N 36°10' W 005°23'1 1.9
2017-Aug-08 02:00N 36°11' W 005°24'0 0.4
2017-Aug-08 01:17N 36°11' W 005°24'1 1.7
2017-Aug-08 00:51N 36°10' W 005°24'1 0.7
2017-Aug-07 23:51N 36°11' W 005°24'0 0.0
2017-Aug-07 23:30N 36°11' W 005°24'0 0.0
2017-Aug-07 23:00N 36°11' W 005°24'0 0.0
2017-Aug-07 22:28N 36°11' W 005°24'0 0.2
2017-Aug-07 21:53N 36°11' W 005°24'0 0.1
2017-Aug-07 20:50N 36°11' W 005°24'0 0.0
2017-Aug-07 20:14N 36°11' W 005°24'0 0.0
2017-Aug-07 19:58N 36°11' W 005°24'0 0.1
2017-Aug-07 18:46N 36°11' W 005°24'1 3.7
2017-Aug-07 18:27N 36°10' W 005°23'0 0.1
2017-Aug-07 17:58N 36°10' W 005°23'1 1.4
2017-Aug-07 17:21N 36°11' W 005°24'1 1.9
2017-Aug-07 16:54N 36°10' W 005°23'0 0.0
2017-Aug-07 16:30N 36°10' W 005°23'0 0.0
2017-Aug-07 15:52N 36°10' W 005°23'0 0.0
2017-Aug-07 15:30N 36°10' W 005°23'0 0.2
2017-Aug-07 14:51N 36°10' W 005°23'0 0.0
2017-Aug-07 05:04N 36°10' W 005°23'0 0.0
2017-Aug-07 03:58N 36°10' W 005°23'0 0.0
2017-Aug-07 00:55N 36°10' W 005°23'0 0.0
2017-Aug-07 00:12N 36°10' W 005°23'0 0.0
2017-Aug-07 00:00N 36°10' W 005°23'0 0.0
2017-Aug-06 18:56N 36°10' W 005°23'0 0.0
2017-Aug-06 18:30N 36°10' W 005°23'1 1.9
2017-Aug-06 17:59N 36°11' W 005°24'0 0.5
2017-Aug-06 17:16N 36°11' W 005°24'0 0.0
2017-Aug-06 17:00N 36°11' W 005°24'  
Track history (hours):
 
Tides and Currents Weather Stations Pressure Air Temp Water Temp Dewpoint Dewpoint Depression Visibility Wind Speed Wind Dir Waves Ship Positions

Sertosa Veintisiete

Last reported at 2017-Aug-16 16:40 UTC. Time now 2017-Aug-17 06:04 UTC.
Position N 36°10' W 005°23'.

Length 24 m; draft 4.2 m.

Type: Tug. MMSI: 224337000.

Date/timePositionNaut miles runAvg speedWind from/ knotsBaromVisibWave heightAir tempDewpointWater temp
2017-Aug-16 16:40N 36°10' W 005°23'0 0.0
2017-Aug-16 16:28N 36°10' W 005°23'8 0.2
2017-Aug-14 21:00N 36°02' W 005°21'5 9.2
2017-Aug-14 20:30N 35°58' W 005°20'4 7.5
2017-Aug-14 20:00N 35°54' W 005°19'0 0.0
2017-Aug-14 19:30N 35°54' W 005°19'1 2.2
2017-Aug-14 19:00N 35°54' W 005°18'1 2.1
2017-Aug-14 18:30N 35°54' W 005°19'0 0.0
2017-Aug-14 18:00N 35°54' W 005°19'0 0.0
2017-Aug-14 17:30N 35°54' W 005°19'0 0.0
2017-Aug-14 17:00N 35°54' W 005°19'0 0.0
2017-Aug-14 16:30N 35°54' W 005°19'0 0.0
2017-Aug-14 16:00N 35°54' W 005°19'0 0.0
2017-Aug-14 15:30N 35°54' W 005°19'0 0.0
2017-Aug-14 15:00N 35°54' W 005°19'0 0.0
2017-Aug-14 14:30N 35°54' W 005°19'0 0.0
2017-Aug-14 14:00N 35°54' W 005°19'0 0.0
2017-Aug-14 13:30N 35°54' W 005°19'0 0.0
2017-Aug-14 13:00N 35°54' W 005°19'0 0.0
2017-Aug-14 12:30N 35°54' W 005°19'0 0.0
2017-Aug-14 12:00N 35°54' W 005°19'0 0.0
2017-Aug-14 11:30N 35°54' W 005°19'1 2.2
2017-Aug-14 11:00N 35°54' W 005°20'0 1.0
2017-Aug-14 10:30N 35°54' W 005°19'4 8.6
2017-Aug-14 10:00N 35°58' W 005°22'12 0.9
2017-Aug-13 21:03N 36°10' W 005°23'  
2017-Aug-10 23:44N 36°10' W 005°23'0 0.0
2017-Aug-10 23:06N 36°10' W 005°23'0 0.0
2017-Aug-10 23:00N 36°10' W 005°23'0 0.0
2017-Aug-10 22:08N 36°10' W 005°23'0 0.0
2017-Aug-10 21:51N 36°10' W 005°23'3 1.1
2017-Aug-10 19:04N 36°08' W 005°25'1 0.5
2017-Aug-10 17:04N 36°09' W 005°26'2 0.3
2017-Aug-10 09:35N 36°10' W 005°24'0 5.5
2017-Aug-10 09:30N 36°09' W 005°24'0 0.8
2017-Aug-10 08:58N 36°09' W 005°24'2 2.1
2017-Aug-10 08:14N 36°10' W 005°23'0 1.5
2017-Aug-10 08:00N 36°10' W 005°23'0 0.0
2017-Aug-10 07:30N 36°10' W 005°23'0 0.4
2017-Aug-10 06:56N 36°10' W 005°23'0 0.6
2017-Aug-10 06:26N 36°10' W 005°23'0 0.0
2017-Aug-10 05:30N 36°10' W 005°23'0 0.0
2017-Aug-10 04:54N 36°10' W 005°23'0 0.0
2017-Aug-10 04:30N 36°10' W 005°23'0 0.0
2017-Aug-10 04:00N 36°10' W 005°23'0 0.0
2017-Aug-10 01:39N 36°10' W 005°23'0 0.0
2017-Aug-10 01:22N 36°10' W 005°23'0 0.0
2017-Aug-10 00:55N 36°10' W 005°23'0 0.0
2017-Aug-10 00:30N 36°10' W 005°23'0 0.0
2017-Aug-09 23:02N 36°10' W 005°23'0 0.0
2017-Aug-09 22:54N 36°10' W 005°23'0 0.0
2017-Aug-09 20:54N 36°10' W 005°23'0 0.0
2017-Aug-09 20:24N 36°10' W 005°23'0 0.0
2017-Aug-09 19:48N 36°10' W 005°23'0 0.0
2017-Aug-09 19:29N 36°10' W 005°23'0 0.0
2017-Aug-09 18:50N 36°10' W 005°23'0 0.3
2017-Aug-09 18:30N 36°10' W 005°23'1 1.4
2017-Aug-09 17:54N 36°11' W 005°24'0 0.2
2017-Aug-09 15:42N 36°11' W 005°24'1 2.4
2017-Aug-09 15:26N 36°10' W 005°23'2 0.7
2017-Aug-09 12:20N 36°08' W 005°24'1 2.5
2017-Aug-09 11:56N 36°09' W 005°24'1 0.3
2017-Aug-09 06:41N 36°10' W 005°24'0 1.5
2017-Aug-09 06:30N 36°10' W 005°24'1 1.6
2017-Aug-09 06:00N 36°10' W 005°23'0 0.0
2017-Aug-09 05:30N 36°10' W 005°23'0 0.0
2017-Aug-09 05:00N 36°10' W 005°23'0 0.0
2017-Aug-09 04:30N 36°10' W 005°23'0 0.0
2017-Aug-09 04:00N 36°10' W 005°23'0 0.0
2017-Aug-09 03:30N 36°10' W 005°23'1 0.4
2017-Aug-09 00:44N 36°11' W 005°24'0 0.3
2017-Aug-09 00:07N 36°11' W 005°24'0 0.0
2017-Aug-08 23:16N 36°11' W 005°24'0 0.0
2017-Aug-08 22:50N 36°11' W 005°24'0 0.0
2017-Aug-08 22:28N 36°11' W 005°24'0 0.0
2017-Aug-08 21:46N 36°11' W 005°24'0 0.0
2017-Aug-08 21:30N 36°11' W 005°24'0 0.0
2017-Aug-08 21:00N 36°11' W 005°24'0 0.0
2017-Aug-08 18:11N 36°11' W 005°24'0 1.1
2017-Aug-08 18:00N 36°11' W 005°24'1 2.3
2017-Aug-08 17:30N 36°10' W 005°23'0 0.0
2017-Aug-08 17:00N 36°10' W 005°23'0 0.0
2017-Aug-08 16:30N 36°10' W 005°23'0 0.0
2017-Aug-08 16:00N 36°10' W 005°23'0 0.0
2017-Aug-08 15:30N 36°10' W 005°23'0 0.0
2017-Aug-08 15:00N 36°10' W 005°23'0 0.6
2017-Aug-08 14:30N 36°10' W 005°23'0 0.6
2017-Aug-08 14:00N 36°10' W 005°23'1 2.4
2017-Aug-08 13:30N 36°11' W 005°24'0 0.0
2017-Aug-08 13:00N 36°11' W 005°24'1 2.3
2017-Aug-08 12:30N 36°10' W 005°23'0 0.0
2017-Aug-08 12:00N 36°10' W 005°23'0 0.0
2017-Aug-08 11:29N 36°10' W 005°23'0 0.0
2017-Aug-08 11:00N 36°10' W 005°23'0 0.0
2017-Aug-08 10:30N 36°10' W 005°23'0 0.0
2017-Aug-08 10:00N 36°10' W 005°23'0 0.0
2017-Aug-08 09:30N 36°10' W 005°23'0 0.0
2017-Aug-08 09:00N 36°10' W 005°23'1 1.1
2017-Aug-08 08:30N 36°10' W 005°23'1 1.3
2017-Aug-08 07:55N 36°11' W 005°24'1 1.7
2017-Aug-08 07:27N 36°10' W 005°25'1 0.9
2017-Aug-08 06:12N 36°10' W 005°23'1 3.7
2017-Aug-08 06:00N 36°10' W 005°23'0 0.0
2017-Aug-08 05:30N 36°10' W 005°23'0 0.0
2017-Aug-08 05:00N 36°10' W 005°23'0 0.0
2017-Aug-08 04:30N 36°10' W 005°23'0 0.0
2017-Aug-08 04:00N 36°10' W 005°23'0 0.0
2017-Aug-08 03:30N 36°10' W 005°23'0 0.0
2017-Aug-08 03:00N 36°10' W 005°23'0 0.0
2017-Aug-08 02:30N 36°10' W 005°23'1 1.9
2017-Aug-08 02:00N 36°11' W 005°24'0 0.4
2017-Aug-08 01:17N 36°11' W 005°24'1 1.7
2017-Aug-08 00:51N 36°10' W 005°24'1 0.7
2017-Aug-07 23:51N 36°11' W 005°24'0 0.0
2017-Aug-07 23:30N 36°11' W 005°24'0 0.0
2017-Aug-07 23:00N 36°11' W 005°24'0 0.0
2017-Aug-07 22:28N 36°11' W 005°24'0 0.2
2017-Aug-07 21:53N 36°11' W 005°24'0 0.1
2017-Aug-07 20:50N 36°11' W 005°24'0 0.0
2017-Aug-07 20:14N 36°11' W 005°24'0 0.0
2017-Aug-07 19:58N 36°11' W 005°24'0 0.1
2017-Aug-07 18:46N 36°11' W 005°24'1 3.7
2017-Aug-07 18:27N 36°10' W 005°23'0 0.1
2017-Aug-07 17:58N 36°10' W 005°23'1 1.4
2017-Aug-07 17:21N 36°11' W 005°24'1 1.9
2017-Aug-07 16:54N 36°10' W 005°23'0 0.0
2017-Aug-07 16:30N 36°10' W 005°23'0 0.0
2017-Aug-07 15:52N 36°10' W 005°23'0 0.0
2017-Aug-07 15:30N 36°10' W 005°23'0 0.2
2017-Aug-07 14:51N 36°10' W 005°23'0 0.0
2017-Aug-07 05:04N 36°10' W 005°23'0 0.0
2017-Aug-07 03:58N 36°10' W 005°23'0 0.0
2017-Aug-07 00:55N 36°10' W 005°23'0 0.0
2017-Aug-07 00:12N 36°10' W 005°23'0 0.0
2017-Aug-07 00:00N 36°10' W 005°23'0 0.0
2017-Aug-06 18:56N 36°10' W 005°23'0 0.0
2017-Aug-06 18:30N 36°10' W 005°23'1 1.9
2017-Aug-06 17:59N 36°11' W 005°24'0 0.5
2017-Aug-06 17:16N 36°11' W 005°24'0 0.0
2017-Aug-06 17:00N 36°11' W 005°24'  

Dump ship's entire track history